Time;durP1;ratioP1;P1;durP2;ratioP2;P2;SDS_P1;SDS_P2;PMS_P1;PMS_P2;Temp;Humidity;BMP_temperature;BMP_pressure;BME280_temperature;BME280_humidity;BME280_pressure;Samples;Min_cycle;Max_cycle;Signal;HPM_P1;HPM_P2
2022/01/09 00:00:21;;;;;;;0.70;0.70;;;;;;;;;;5032869;28;20037;-66
2022/01/09 00:02:47;;;;;;;0.70;0.70;;;;;;;;;;5034177;28;20483;-64
2022/01/09 00:05:13;;;;;;;0.90;0.90;;;;;;;;;;5032755;28;20029;-65
2022/01/09 00:07:39;;;;;;;1.15;0.80;;;;;;;;;;5033383;28;20384;-63
2022/01/09 00:10:07;;;;;;;1.10;1.00;;;;;;;;;;5033335;28;20030;-65
2022/01/09 00:12:33;;;;;;;1.08;0.98;;;;;;;;;;5033702;28;20025;-65
2022/01/09 00:14:59;;;;;;;0.98;0.98;;;;;;;;;;5033542;28;20033;-65
2022/01/09 00:17:25;;;;;;;1.17;0.80;;;;;;;;;;5033896;28;20025;-64
2022/01/09 00:19:51;;;;;;;0.75;0.75;;;;;;;;;;5032936;28;20025;-64
2022/01/09 00:22:22;;;;;;;0.70;0.70;;;;;;;;;;5033753;28;20048;-64
2022/01/09 00:24:48;;;;;;;0.85;0.80;;;;;;;;;;5033608;28;20116;-63
2022/01/09 00:27:14;;;;;;;0.70;0.70;;;;;;;;;;5033041;28;20105;-63
2022/01/09 00:29:40;;;;;;;0.70;0.70;;;;;;;;;;5032658;28;20067;-65
2022/01/09 00:32:07;;;;;;;0.77;0.77;;;;;;;;;;5033486;28;20021;-64
2022/01/09 00:34:33;;;;;;;1.10;0.90;;;;;;;;;;5033242;28;20053;-64
2022/01/09 00:36:59;;;;;;;0.60;0.60;;;;;;;;;;5032949;28;20107;-64
2022/01/09 00:39:25;;;;;;;1.23;0.70;;;;;;;;;;5032400;28;20080;-65
2022/01/09 00:41:51;;;;;;;1.40;0.70;;;;;;;;;;5031833;28;20530;-64
2022/01/09 00:44:17;;;;;;;0.60;0.60;;;;;;;;;;5033593;28;20107;-65
2022/01/09 00:46:43;;;;;;;0.70;0.70;;;;;;;;;;5033453;28;20065;-67
2022/01/09 00:49:09;;;;;;;0.50;0.50;;;;;;;;;;5032473;28;20398;-67
2022/01/09 00:51:35;;;;;;;0.60;0.60;;;;;;;;;;5033542;28;20025;-66
2022/01/09 00:54:01;;;;;;;0.93;0.90;;;;;;;;;;5031911;28;20021;-66
2022/01/09 00:56:26;;;;;;;0.60;0.60;;;;;;;;;;5032779;28;20392;-67
2022/01/09 00:58:52;;;;;;;0.60;0.60;;;;;;;;;;5030748;28;20025;-66
2022/01/09 01:01:19;;;;;;;0.70;0.70;;;;;;;;;;5033047;28;20034;-65
2022/01/09 01:03:45;;;;;;;0.80;0.80;;;;;;;;;;5033097;28;20037;-65
2022/01/09 01:06:13;;;;;;;0.63;0.63;;;;;;;;;;5032721;28;20124;-66
2022/01/09 01:08:39;;;;;;;0.50;0.50;;;;;;;;;;5031803;28;20476;-66
2022/01/09 01:11:05;;;;;;;0.47;0.47;;;;;;;;;;5031915;28;20431;-65
2022/01/09 01:13:31;;;;;;;0.60;0.60;;;;;;;;;;5032615;28;20492;-65
2022/01/09 01:15:58;;;;;;;0.63;0.63;;;;;;;;;;5032775;28;20179;-66
2022/01/09 01:18:24;;;;;;;0.50;0.50;;;;;;;;;;5031739;28;20078;-66
2022/01/09 01:20:50;;;;;;;0.60;0.60;;;;;;;;;;5032526;28;20029;-66
2022/01/09 01:23:16;;;;;;;0.40;0.40;;;;;;;;;;5032162;28;20040;-66
2022/01/09 01:25:44;;;;;;;0.60;0.60;;;;;;;;;;5032352;28;20541;-65
2022/01/09 01:28:11;;;;;;;0.40;0.40;;;;;;;;;;5031745;28;20380;-66
2022/01/09 01:30:38;;;;;;;0.60;0.60;;;;;;;;;;5031603;28;20036;-66
2022/01/09 01:35:19;;;;;;;0.50;0.50;;;;;;;;;;5129893;27;20378;-66
2022/01/09 01:37:45;;;;;;;0.57;0.57;;;;;;;;;;5130300;28;20063;-66
2022/01/09 01:40:16;;;;;;;0.57;0.57;;;;;;;;;;5129473;27;20557;-66
2022/01/09 01:42:42;;;;;;;0.60;0.60;;;;;;;;;;5130280;27;20019;-66
2022/01/09 01:45:09;;;;;;;0.40;0.40;;;;;;;;;;5123566;27;20429;-65
2022/01/09 01:47:35;;;;;;;0.50;0.50;;;;;;;;;;5109637;28;20028;-66
2022/01/09 01:50:01;;;;;;;0.40;0.40;;;;;;;;;;5109052;28;20053;-66
2022/01/09 01:52:32;;;;;;;0.50;0.50;;;;;;;;;;5109327;28;20027;-65
2022/01/09 01:54:58;;;;;;;0.60;0.60;;;;;;;;;;5109788;28;20093;-67
2022/01/09 01:57:24;;;;;;;0.50;0.50;;;;;;;;;;5109216;28;20795;-65
2022/01/09 01:59:51;;;;;;;0.55;0.55;;;;;;;;;;5106397;28;20101;-66
2022/01/09 02:02:17;;;;;;;0.63;0.63;;;;;;;;;;5109837;28;20031;-65
2022/01/09 02:04:43;;;;;;;0.88;0.70;;;;;;;;;;5125676;28;20035;-67
2022/01/09 02:07:09;;;;;;;0.50;0.50;;;;;;;;;;5110363;28;20031;-66
2022/01/09 02:09:34;;;;;;;0.55;0.55;;;;;;;;;;5108483;28;20040;-65
2022/01/09 02:12:01;;;;;;;0.50;0.50;;;;;;;;;;5109207;28;20024;-65
2022/01/09 02:14:27;;;;;;;0.50;0.50;;;;;;;;;;5109165;28;20036;-64
2022/01/09 02:16:53;;;;;;;0.50;0.50;;;;;;;;;;5109039;28;20091;-63
2022/01/09 02:19:22;;;;;;;0.50;0.50;;;;;;;;;;5108561;28;20052;-66
2022/01/09 02:21:48;;;;;;;0.50;0.50;;;;;;;;;;5108856;28;20028;-65
2022/01/09 02:24:14;;;;;;;0.40;0.40;;;;;;;;;;5109130;28;20030;-65
2022/01/09 02:26:41;;;;;;;0.80;0.60;;;;;;;;;;5108934;28;20053;-66
2022/01/09 02:29:07;;;;;;;0.52;0.52;;;;;;;;;;5117570;28;20087;-65
2022/01/09 02:31:34;;;;;;;0.68;0.68;;;;;;;;;;5109565;28;20020;-65
2022/01/09 02:36:26;;;;;;;0.60;0.50;;;;;;;;;;5089101;28;20447;-65
2022/01/09 02:38:52;;;;;;;0.40;0.40;;;;;;;;;;5088919;28;20485;-66
2022/01/09 02:41:18;;;;;;;1.75;0.70;;;;;;;;;;5089669;28;20506;-67
2022/01/09 02:43:44;;;;;;;0.50;0.50;;;;;;;;;;5088788;28;20043;-67
2022/01/09 02:48:34;;;;;;;0.60;0.60;;;;;;;;;;5068346;28;20823;-66
2022/01/09 02:51:05;;;;;;;0.47;0.47;;;;;;;;;;5069152;28;20501;-66
2022/01/09 02:53:35;;;;;;;0.40;0.40;;;;;;;;;;5069300;28;20032;-66
2022/01/09 02:56:03;;;;;;;0.50;0.50;;;;;;;;;;5069031;28;20029;-65
2022/01/09 02:58:29;;;;;;;0.85;0.60;;;;;;;;;;5068284;28;20029;-66
2022/01/09 03:00:55;;;;;;;0.40;0.40;;;;;;;;;;5051869;28;20411;-67
2022/01/09 03:03:21;;;;;;;1.55;0.50;;;;;;;;;;5048994;28;20017;-66
2022/01/09 03:05:47;;;;;;;0.57;0.57;;;;;;;;;;5049168;28;20037;-66
2022/01/09 07:41:28;;;;;;;0.98;0.90;;;;;;;;;;5069232;28;20433;-63
2022/01/09 07:43:54;;;;;;;0.70;0.70;;;;;;;;;;5069203;28;20021;-66
2022/01/09 07:46:19;;;;;;;1.20;1.10;;;2.80;99.90;;;;;;5068970;28;20102;-66
2022/01/09 07:48:45;;;;;;;2.20;1.00;;;4.00;99.90;;;;;;5068272;28;20082;-66
2022/01/09 07:51:11;;;;;;;1.23;0.70;;;;;;;;;;5069067;28;20111;-70
2022/01/09 07:53:37;;;;;;;3.38;1.35;;;3.30;99.90;;;;;;5056849;28;20033;-71
2022/01/09 07:56:03;;;;;;;1.13;0.90;;;2.90;99.90;;;;;;5058215;28;20398;-71
2022/01/09 07:58:29;;;;;;;1.30;1.20;;;;;;;;;;5065474;28;20125;-73
2022/01/09 08:00:55;;;;;;;2.50;1.30;;;5.70;99.90;;;;;;5050693;28;20032;-75
2022/01/09 08:03:21;;;;;;;2.78;1.45;;;;;;;;;;5058502;28;20445;-75
2022/01/09 08:05:46;;;;;;;4.40;1.20;;;5.00;99.90;;;;;;5060982;28;20428;-74
2022/01/09 08:08:12;;;;;;;4.97;1.17;;;3.30;99.90;;;;;;5057789;28;20035;-74
2022/01/09 08:10:37;;;;;;;7.78;1.75;;;3.30;99.90;;;;;;5056915;28;20029;-74
2022/01/09 08:13:03;;;;;;;7.80;1.70;;;;;;;;;;5056570;28;20113;-74
2022/01/09 08:15:30;;;;;;;8.43;1.83;;;4.30;99.90;;;;;;5058227;28;20028;-74
2022/01/09 08:17:57;;;;;;;5.05;1.88;;;;;;;;;;5058979;28;20021;-75
2022/01/09 08:20:23;;;;;;;3.92;1.80;;;5.40;99.90;;;;;;5067592;28;20025;-75
2022/01/09 08:22:50;;;;;;;3.17;1.40;;;;;;;;;;5067311;28;20029;-74
2022/01/09 08:25:17;;;;;;;3.53;1.40;;;3.80;99.90;;;;;;5067401;28;20040;-79
2022/01/09 08:27:44;;;;;;;5.63;2.20;;;;;;;;;;5069201;28;20043;-79
2022/01/09 08:30:11;;;;;;;3.53;1.30;;;4.50;99.90;;;;;;5057542;28;20100;-79
2022/01/09 08:32:37;;;;;;;2.97;1.95;;;;;;;;;;5057200;28;20020;-79
2022/01/09 08:35:04;;;;;;;2.00;1.50;;;3.60;99.90;;;;;;5058866;28;20438;-78
2022/01/09 08:37:30;;;;;;;3.33;1.70;;;4.10;99.90;;;;;;5057094;28;20017;-78
2022/01/09 08:39:56;;;;;;;4.97;1.77;;;3.60;99.90;;;;;;5058903;28;20094;-78
2022/01/09 08:42:21;;;;;;;3.40;1.38;;;4.10;99.90;;;;;;5059909;28;20559;-78
2022/01/09 08:44:47;;;;;;;2.70;1.60;;;;;;;;;;5049155;28;20033;-72
2022/01/09 08:47:13;;;;;;;1.75;1.33;;;4.50;99.90;;;;;;5048175;28;20049;-72
2022/01/09 08:49:39;;;;;;;3.95;1.60;;;;;;;;;;5047209;28;20450;-74
2022/01/09 08:52:05;;;;;;;3.05;1.58;;;;;;;;;;5038375;28;20030;-71
2022/01/09 08:54:32;;;;;;;2.50;1.80;;;;;;;;;;5043321;28;20029;-71
2022/01/09 08:56:57;;;;;;;4.53;2.70;;;5.20;99.90;;;;;;5053999;28;20033;-72
2022/01/09 08:59:24;;;;;;;30.58;17.35;;;;;;;;;;5050175;28;20040;-71
2022/01/09 09:01:50;;;;;;;2.80;1.58;;;4.80;99.90;;;;;;5053611;28;20021;-72
2022/01/09 09:04:16;;;;;;;5.53;2.00;;;6.40;99.90;;;;;;5054573;28;20029;-71
2022/01/09 09:06:42;;;;;;;6.43;1.48;;;;;;;;;;5054178;28;20021;-72
2022/01/09 09:09:09;;;;;;;10.18;2.75;;;;;;;;;;5053303;28;20025;-74
2022/01/09 09:11:35;;;;;;;6.40;2.67;;;;;;;;;;5053746;28;20028;-74
2022/01/09 09:14:02;;;;;;;11.05;5.57;;;4.20;99.90;;;;;;5054344;28;20036;-73
2022/01/09 09:16:28;;;;;;;7.95;2.05;;;5.00;99.90;;;;;;5053857;28;20028;-72
2022/01/09 09:18:54;;;;;;;7.97;1.70;;;;;;;;;;5053364;28;20036;-73
2022/01/09 09:21:19;;;;;;;5.18;1.70;;;6.90;99.90;;;;;;5053289;28;20621;-74
2022/01/09 09:23:48;;;;;;;5.55;2.33;;;;;;;;;;5054048;28;20049;-73
2022/01/09 09:26:16;;;;;;;23.88;8.05;;;;;;;;;;5054056;28;20135;-73
2022/01/09 09:28:42;;;;;;;6.95;2.22;;;4.80;99.90;;;;;;5052985;28;20021;-71
2022/01/09 09:31:09;;;;;;;7.55;1.92;;;;;;;;;;5034780;28;20033;-73
2022/01/09 09:33:35;;;;;;;14.75;5.63;;;;;;;;;;5033797;28;20071;-73
2022/01/09 09:36:02;;;;;;;17.52;5.63;;;5.30;99.90;;;;;;5033753;28;20506;-73
2022/01/09 09:38:29;;;;;;;9.73;4.43;;;;;;;;;;5033681;28;20040;-74
2022/01/09 09:40:55;;;;;;;13.90;6.07;;;;;;;;;;5032229;28;20041;-73
2022/01/09 09:43:21;;;;;;;15.13;8.18;;;;;;;;;;5033504;28;20369;-73
2022/01/09 09:45:48;;;;;;;5.32;2.67;;;;;;;;;;5033720;28;20026;-72
2022/01/09 09:48:14;;;;;;;6.30;2.17;;;7.50;99.90;;;;;;5033173;28;20029;-71
2022/01/09 09:50:40;;;;;;;4.53;1.35;;;;;;;;;;5032519;28;20748;-70
2022/01/09 09:53:06;;;;;;;3.33;1.33;;;;;;;;;;5031395;28;20041;-70
2022/01/09 09:55:32;;;;;;;2.60;1.08;;;;;;;;;;5039944;28;20036;-71
2022/01/09 09:57:58;;;;;;;3.20;1.85;;;;;;;;;;5041380;28;20962;-72
2022/01/09 10:00:25;;;;;;;4.22;1.40;;;;;;;;;;5041629;28;20025;-71
2022/01/09 10:02:56;;;;;;;2.92;1.40;;;;;;;;;;5052380;28;20025;-70
2022/01/09 10:05:26;;;;;;;2.42;1.35;;;;;;;;;;5053172;28;20025;-70
2022/01/09 10:08:04;;;;;;;4.05;1.77;;;;;;;;;;5053269;28;20486;-71
2022/01/09 10:10:31;;;;;;;3.17;1.40;;;5.90;99.90;;;;;;5052585;28;20021;-70
2022/01/09 10:13:11;;;;;;;2.88;1.10;;;;;;;;;;5052945;28;20029;-71
2022/01/09 10:15:50;;;;;;;2.60;1.30;;;;;;;;;;5052674;28;20035;-70
2022/01/09 10:18:35;;;;;;;5.35;2.30;;;;;;;;;;5052302;28;20059;-70
2022/01/09 10:21:08;;;;;;;4.15;1.85;;;;;;;;;;5052765;28;20064;-69
2022/01/09 10:23:34;;;;;;;5.10;1.73;;;;;;;;;;5053149;28;20380;-69
2022/01/09 10:26:10;;;;;;;5.95;1.75;;;;;;;;;;5051637;28;20025;-70
2022/01/09 10:28:39;;;;;;;5.05;1.40;;;;;;;;;;5051951;28;20032;-70
2022/01/09 10:31:15;;;;;;;4.45;1.75;;;;;;;;;;5044248;28;20025;-69
2022/01/09 10:33:41;;;;;;;7.88;1.80;;;;;;;;;;5052521;28;20494;-71
2022/01/09 10:36:09;;;;;;;9.35;1.75;;;;;;;;;;5052424;28;20056;-71
2022/01/09 10:38:35;;;;;;;6.85;1.55;;;;;;;;;;5051604;28;20429;-71
2022/01/09 10:41:03;;;;;;;3.65;1.50;;;;;;;;;;5050783;28;20040;-71
2022/01/09 10:43:36;;;;;;;39.92;20.15;;;;;;;;;;5052450;28;20067;-71
2022/01/09 10:46:02;;;;;;;6.50;2.17;;;;;;;;;;5047681;28;20475;-71
2022/01/09 10:48:34;;;;;;;25.58;12.75;;;;;;;;;;5051518;28;20036;-71
2022/01/09 10:51:01;;;;;;;5.93;1.92;;;;;;;;;;5051001;28;20033;-71
2022/01/09 10:53:31;;;;;;;6.00;2.28;;;;;;;;;;5039050;28;20680;-77
2022/01/09 10:56:06;;;;;;;8.05;2.22;;;;;;;;;;5049238;28;20509;-78
2022/01/09 10:58:37;;;;;;;12.25;4.00;;;;;;;;;;5052319;28;20032;-79
2022/01/09 11:01:10;;;;;;;6.82;1.75;;;;;;;;;;5046324;28;20025;-78
2022/01/09 11:03:36;;;;;;;10.77;1.98;;;;;;;;;;5052456;28;20029;-70
2022/01/09 11:06:03;;;;;;;7.50;2.15;;;;;;;;;;5052252;28;20025;-70
2022/01/09 11:08:30;;;;;;;5.60;1.50;;;;;;;;;;5051577;28;20106;-71
2022/01/09 11:10:56;;;;;;;4.90;1.42;;;;;;;;;;5052282;28;20028;-70
2022/01/09 11:13:25;;;;;;;10.30;1.63;;;;;;;;;;5052780;28;20025;-70
2022/01/09 11:18:36;;;;;;;7.38;1.38;;;;;;;;;;5064855;28;20043;-68
2022/01/09 11:21:02;;;;;;;8.10;2.00;;;;;;;;;;5052229;28;20450;-69
2022/01/09 11:23:34;;;;;;;8.15;2.08;;;;;;;;;;5052038;28;20428;-69
2022/01/09 11:26:02;;;;;;;8.13;1.58;;;;;;;;;;5052069;28;20407;-69
2022/01/09 11:28:30;;;;;;;7.90;2.00;;;;;;;;;;5051410;28;20051;-74
2022/01/09 11:31:05;;;;;;;4.97;1.45;;;;;;;;;;5051713;28;20031;-74
2022/01/09 11:33:43;;;;;;;3.92;1.63;;;;;;;;;;5051874;28;20068;-74
2022/01/09 11:36:27;;;;;;;10.55;2.05;;;;;;;;;;5051728;28;20037;-76
2022/01/09 11:38:53;;;;;;;9.07;1.80;;;;;;;;;;5051170;28;20364;-73
2022/01/09 11:41:27;;;;;;;9.70;2.40;;;;;;;;;;5050648;28;20420;-74
2022/01/09 11:43:53;;;;;;;12.52;4.20;;;;;;;;;;5051890;28;20052;-74
2022/01/09 11:46:20;;;;;;;7.22;2.00;;;;;;;;;;5051141;28;20038;-74
2022/01/09 11:48:51;;;;;;;6.63;2.00;;;7.00;99.90;;;;;;5051104;28;20025;-73
2022/01/09 11:51:18;;;;;;;7.20;2.50;;;;;;;;;;5051923;28;20028;-74
2022/01/09 11:53:56;;;;;;;12.25;3.90;;;;;;;;;;5051345;28;20032;-72
2022/01/09 11:56:41;;;;;;;4.65;2.33;;;;;;;;;;5051475;28;20545;-71
2022/01/09 11:59:48;;;;;;;6.78;3.40;;;6.20;99.90;;;;;;5048913;28;20036;-71
2022/01/09 12:02:16;;;;;;;14.63;10.75;;;;;;;;;;5031197;28;20064;-71
2022/01/09 12:04:43;;;;;;;5.28;2.80;;;;;;;;;;5031854;28;20079;-74
2022/01/09 12:07:13;;;;;;;8.43;3.22;;;;;;;;;;5032060;28;20072;-79
2022/01/09 12:09:45;;;;;;;7.45;2.47;;;7.10;99.90;;;;;;5034168;28;20148;-80
2022/01/09 12:12:11;;;;;;;5.07;3.00;;;8.20;99.90;;;;;;5033949;28;20025;-79
2022/01/09 12:17:25;;;;;;;4.00;1.88;;;6.60;99.90;;;;;;5032330;28;20091;-78
2022/01/09 12:20:13;;;;;;;6.07;1.45;;;7.50;99.90;;;;;;5040318;28;20053;-77
2022/01/09 12:25:10;;;;;;;4.00;1.55;;;;;;;;;;5044133;28;20032;-76
2022/01/09 12:27:43;;;;;;;8.77;2.13;;;6.30;99.90;;;;;;5043979;28;20383;-78
2022/01/09 12:30:10;;;;;;;2.70;1.35;;;;;;;;;;5043360;28;20025;-76
2022/01/09 12:32:45;;;;;;;3.53;1.40;;;;;;;;;;5043650;28;20026;-77
2022/01/09 12:35:13;;;;;;;3.35;1.40;;;7.10;99.90;;;;;;5049786;28;20075;-76
2022/01/09 12:37:45;;;;;;;3.50;1.38;;;8.40;99.90;;;;;;5041821;28;20043;-76
2022/01/09 12:40:13;;;;;;;3.25;1.45;;;7.40;99.90;;;;;;5044120;28;20057;-75
2022/01/09 12:42:43;;;;;;;5.78;1.65;;;;;;;;;;5042176;28;20108;-75
2022/01/09 12:45:09;;;;;;;4.45;1.33;;;11.00;99.90;;;;;;5043321;28;20017;-76
2022/01/09 12:47:40;;;;;;;4.72;1.20;;;;;;;;;;5043772;28;20026;-75
2022/01/09 12:50:05;;;;;;;3.10;1.45;;;8.20;99.90;;;;;;5042067;28;20036;-75
2022/01/09 12:52:31;;;;;;;11.32;1.88;;;7.90;99.90;;;;;;5043929;28;20033;-75
2022/01/09 12:55:15;;;;;;;4.93;1.23;;;;;;;;;;5042535;28;20025;-75
2022/01/09 12:57:50;;;;;;;3.05;1.50;;;8.50;99.90;;;;;;5043505;28;20092;-75
2022/01/09 13:00:15;;;;;;;5.55;1.67;;;7.50;99.90;;;;;;5041772;28;20049;-75
2022/01/09 13:02:51;;;;;;;3.90;1.60;;;;;;;;;;5043531;28;20057;-75
2022/01/09 13:05:21;;;;;;;3.72;1.30;;;;;;;;;;5043708;28;20544;-78
2022/01/09 13:07:54;;;;;;;7.80;1.52;;;7.30;99.90;;;;;;5043506;28;20091;-80
2022/01/09 13:10:21;;;;;;;5.68;1.23;;;7.40;99.90;;;;;;5045049;28;20037;-80
2022/01/09 13:13:11;;;;;;;3.78;1.55;;;;;;;;;;5044647;28;20041;-79
2022/01/09 13:15:39;;;;;;;3.67;1.55;;;7.30;99.90;;;;;;5044701;28;20036;-80
2022/01/09 13:18:06;;;;;;;7.75;1.60;;;6.60;99.90;;;;;;5044269;28;20502;-78
2022/01/09 13:20:32;;;;;;;6.53;1.20;;;;;;;;;;5045701;28;20032;-78
2022/01/09 13:23:09;;;;;;;4.47;1.20;;;7.10;99.90;;;;;;5045246;28;20059;-78
2022/01/09 13:25:46;;;;;;;3.78;1.27;;;;;;;;;;5043868;28;20021;-79
2022/01/09 13:28:20;;;;;;;3.80;1.42;;;11.00;99.90;;;;;;5043067;28;20056;-79
2022/01/09 13:30:46;;;;;;;4.60;2.58;;;11.40;99.90;;;;;;5045777;28;20530;-79
2022/01/09 13:33:12;;;;;;;26.77;21.55;;;9.30;99.90;;;;;;5046348;28;20025;-77
2022/01/09 13:35:38;;;;;;;5.82;1.35;;;;;;;;;;5053649;28;20029;-79
2022/01/09 13:38:04;;;;;;;2.83;0.80;;;;;;;;;;5045756;28;20017;-79
2022/01/09 13:40:30;;;;;;;5.80;2.83;;;9.90;99.90;;;;;;5047392;28;20399;-79
2022/01/09 13:42:56;;;;;;;1.85;0.93;;;;;;;;;;5043754;28;20018;-72
2022/01/09 13:45:23;;;;;;;2.97;1.13;;;;;;;;;;5035723;28;20112;-73
2022/01/09 13:47:58;;;;;;;4.28;1.10;;;;;;;;;;5051769;28;20052;-74
2022/01/09 13:50:25;;;;;;;3.05;1.38;;;;;;;;;;5053330;28;20029;-70
2022/01/09 13:52:52;;;;;;;3.10;0.95;;;7.70;99.90;;;;;;5053092;28;20119;-78
2022/01/09 13:55:22;;;;;;;2.13;1.00;;;;;;;;;;5049453;28;20420;-76
2022/01/09 13:57:56;;;;;;;3.80;1.20;;;;;;;;;;5053226;28;20033;-75
2022/01/09 14:00:26;;;;;;;2.45;1.15;;;;;;;;;;5046852;28;20037;-76
2022/01/09 14:02:53;;;;;;;5.20;1.65;;;;;;;;;;5053327;28;20025;-75
2022/01/09 14:05:20;;;;;;;2.03;1.33;;;;;;;;;;5053456;28;20531;-76
2022/01/09 14:07:50;;;;;;;2.47;1.23;;;;;;;;;;5053369;28;20108;-76
2022/01/09 14:10:16;;;;;;;3.08;1.10;;;10.80;99.90;;;;;;5052633;28;20036;-75
2022/01/09 14:12:43;;;;;;;3.83;1.30;;;;;;;;;;5053176;28;20087;-74
2022/01/09 14:15:19;;;;;;;3.22;1.10;;;;;;;;;;5053756;28;20436;-77
2022/01/09 14:17:46;;;;;;;4.20;1.00;;;;;;;;;;5042110;28;20637;-79
2022/01/09 14:20:18;;;;;;;3.65;1.05;;;;;;;;;;5042327;28;20088;-78
2022/01/09 14:22:49;;;;;;;2.95;1.00;;;;;;;;;;5035387;28;20092;-77
2022/01/09 14:25:16;;;;;;;2.50;1.23;;;;;;;;;;5043510;28;20092;-79
2022/01/09 14:27:47;;;;;;;3.10;1.40;;;;;;;;;;5036649;28;20395;-79
2022/01/09 14:30:25;;;;;;;2.63;1.52;;;;;;;;;;5047321;28;20422;-78
2022/01/09 14:33:09;;;;;;;2.28;1.17;;;;;;;;;;5044675;28;20036;-78
2022/01/09 14:35:37;;;;;;;1.70;0.88;;;;;;;;;;5049657;28;20024;-77
2022/01/09 14:38:05;;;;;;;1.70;1.00;;;;;;;;;;5061041;28;20033;-78
2022/01/09 14:40:32;;;;;;;1.77;1.00;;;;;;;;;;5053658;28;20045;-77
2022/01/09 14:42:59;;;;;;;3.78;1.13;;;;;;;;;;5053087;28;20387;-77
2022/01/09 14:45:25;;;;;;;1.13;1.00;;;;;;;;;;5052646;28;20383;-78
2022/01/09 14:47:51;;;;;;;5.30;1.40;;;;;;;;;;5052482;28;20079;-77
2022/01/09 14:50:18;;;;;;;4.43;1.10;;;7.40;99.90;;;;;;5041029;28;20029;-77
2022/01/09 14:52:44;;;;;;;2.95;1.08;;;7.30;99.90;;;;;;5045312;28;20033;-77
2022/01/09 14:55:11;;;;;;;3.30;1.25;;;;;;;;;;5042228;28;20013;-76
2022/01/09 14:57:37;;;;;;;3.80;1.30;;;;;;;;;;5039673;28;20028;-76
2022/01/09 15:00:05;;;;;;;4.22;1.38;;;;;;;;;;5042631;28;20072;-76
2022/01/09 15:02:31;;;;;;;5.80;1.33;;;;;;;;;;5047374;28;20124;-75
2022/01/09 15:04:57;;;;;;;3.80;1.27;;;;;;;;;;5059409;28;20025;-73
2022/01/09 15:07:23;;;;;;;2.80;1.20;;;;;;;;;;5042056;28;20068;-80
2022/01/09 15:09:51;;;;;;;1.50;1.00;;;;;;;;;;5053821;28;20511;-80
2022/01/09 15:12:17;;;;;;;2.42;1.42;;;;;;;;;;5061171;28;20118;-80
2022/01/09 15:14:43;;;;;;;2.38;1.92;;;;;;;;;;5057220;28;20104;-80
2022/01/09 15:17:09;;;;;;;2.97;1.40;;;;;;;;;;5053440;28;20029;-79
2022/01/09 15:19:36;;;;;;;5.72;2.33;;;;;;;;;;5057294;28;20085;-79
2022/01/09 15:22:03;;;;;;;2.92;1.83;;;;;;;;;;5053100;28;20415;-80
2022/01/09 15:24:29;;;;;;;3.35;1.42;;;;;;;;;;5054155;28;20017;-81
2022/01/09 15:26:57;;;;;;;3.33;1.50;;;;;;;;;;5062368;28;20021;-80
2022/01/09 15:29:23;;;;;;;3.05;1.60;;;;;;;;;;5060015;28;20005;-79
2022/01/09 15:31:49;;;;;;;6.18;2.15;;;;;;;;;;5055438;28;20503;-80
2022/01/09 15:34:15;;;;;;;4.53;1.90;;;;;;;;;;5054214;28;20024;-80
2022/01/09 15:36:41;;;;;;;2.72;1.60;;;;;;;;;;5047814;28;20041;-79
2022/01/09 15:39:07;;;;;;;4.38;2.25;;;;;;;;;;5084598;23;20049;-78
2022/01/09 15:41:34;;;;;;;2.97;2.33;;;;;;;;;;5003376;28;20035;-77
2022/01/09 15:44:01;;;;;;;4.63;2.22;;;;;;;;;;4983068;28;20038;-77
2022/01/09 15:46:28;;;;;;;3.95;2.25;;;;;;;;;;4984260;28;20046;-78
2022/01/09 15:48:55;;;;;;;4.18;2.53;;;;;;;;;;4982359;28;20033;-76
2022/01/09 15:51:26;;;;;;;5.75;2.63;;;;;;;;;;4999418;28;20065;-78
2022/01/09 15:53:52;;;;;;;6.30;2.78;;;;;;;;;;4983767;28;20179;-78
2022/01/09 15:56:18;;;;;;;5.85;2.47;;;;;;;;;;4981234;28;20039;-78
2022/01/09 15:58:44;;;;;;;5.53;2.72;;;;;;;;;;4986277;28;20085;-77
2022/01/09 16:01:10;;;;;;;3.67;2.60;;;;;;;;;;5010896;28;20011;-75
2022/01/09 16:03:36;;;;;;;3.95;2.38;;;;;;;;;;5003424;28;20101;-76
2022/01/09 16:06:03;;;;;;;6.22;3.08;;;;;;;;;;5001727;28;20034;-76
2022/01/09 16:08:32;;;;;;;5.22;3.00;;;;;;;;;;4999334;28;20113;-75
2022/01/09 16:10:59;;;;;;;6.22;3.50;;;;;;;;;;5010405;28;20109;-76
2022/01/09 16:13:26;;;;;;;3.47;2.35;;;;;;;;;;4992182;28;20026;-74
2022/01/09 16:15:53;;;;;;;3.40;2.35;;;;;;;;;;4991792;28;20118;-75
2022/01/09 16:18:20;;;;;;;3.35;2.05;;;;;;;;;;4994397;28;20038;-76
2022/01/09 16:20:46;;;;;;;3.80;2.30;;;;;;;;;;5002560;28;20019;-75
2022/01/09 16:23:12;;;;;;;3.95;2.50;;;;;;;;;;4986965;28;20022;-75
2022/01/09 16:25:38;;;;;;;7.85;4.25;;;;;;;;;;4986460;28;20037;-77
2022/01/09 16:28:04;;;;;;;11.65;4.88;;;;;;;;;;4985373;28;20026;-76
2022/01/09 16:30:30;;;;;;;8.90;4.57;;;;;;;;;;4984052;28;20080;-75
2022/01/09 16:32:56;;;;;;;8.95;3.30;;;;;;;;;;4986990;28;20030;-75
2022/01/09 16:35:23;;;;;;;7.50;5.60;;;;;;;;;;5003151;28;20032;-75
2022/01/09 16:37:50;;;;;;;6.85;3.53;;;;;;;;;;4985998;28;20053;-75
2022/01/09 16:40:16;;;;;;;4.78;2.90;;;;;;;;;;5002558;28;20037;-77
2022/01/09 16:42:42;;;;;;;4.75;2.80;;;;;;;;;;5001836;28;20473;-77
2022/01/09 16:45:08;;;;;;;5.22;2.60;;;;;;;;;;4987698;28;20101;-78
2022/01/09 16:47:34;;;;;;;2.92;2.50;;;;;;;;;;4988946;28;20030;-78
2022/01/09 16:50:00;;;;;;;7.90;3.53;;;;;;;;;;4987262;28;20480;-78
2022/01/09 16:52:27;;;;;;;4.60;3.05;;;;;;;;;;5002252;28;20042;-78
2022/01/09 16:54:53;;;;;;;5.57;3.30;;;;;;;;;;4980796;28;20125;-79
2022/01/09 16:57:19;;;;;;;4.50;3.10;;;;;;;;;;4987107;28;20038;-78
2022/01/09 16:59:45;;;;;;;4.55;3.28;;;;;;;;;;4999570;28;20038;-78
2022/01/09 17:02:12;;;;;;;5.65;3.28;;;;;;;;;;4989143;28;20058;-78
2022/01/09 17:04:38;;;;;;;6.03;3.47;;;;;;;;;;5001160;28;20027;-79
2022/01/09 17:07:04;;;;;;;4.40;3.00;;;;;;;;;;4986823;28;20027;-78
2022/01/09 17:09:30;;;;;;;3.08;2.35;;;;;;;;;;4986765;28;20030;-77
2022/01/09 17:11:56;;;;;;;3.92;3.13;;;;;;;;;;4986082;28;20041;-77
2022/01/09 17:14:23;;;;;;;4.82;3.25;;;;;;;;;;4989163;28;20400;-78
2022/01/09 17:16:49;;;;;;;4.78;3.00;;;;;;;;;;4985062;28;20556;-75
2022/01/09 17:19:15;;;;;;;4.95;2.47;;;;;;;;;;4987086;28;20026;-73
2022/01/09 17:21:41;;;;;;;8.20;2.60;;;;;;;;;;4995898;28;20030;-69
2022/01/09 17:24:07;;;;;;;3.28;2.28;;;;;;;;;;4995614;28;20034;-70
2022/01/09 17:26:34;;;;;;;3.97;2.45;;;;;;;;;;4996512;28;20026;-70
2022/01/09 17:29:01;;;;;;;4.97;2.47;;;;;;;;;;4996641;28;20026;-68
2022/01/09 17:31:27;;;;;;;8.63;3.58;;;;;;;;;;4996723;28;20030;-69
2022/01/09 17:33:53;;;;;;;6.28;3.92;;;;;;;;;;4995052;28;20049;-70
2022/01/09 17:36:19;;;;;;;10.48;3.20;;;;;;;;;;4995493;28;20030;-69
2022/01/09 17:38:46;;;;;;;4.28;2.92;;;;;;;;;;4994522;28;20038;-68
2022/01/09 17:41:12;;;;;;;5.82;2.90;;;;;;;;;;4995415;28;20061;-67
2022/01/09 17:43:38;;;;;;;6.10;3.08;;;;;;;;;;4997137;28;20022;-77
2022/01/09 17:46:04;;;;;;;7.80;6.07;;;;;;;;;;4991194;28;20386;-78
2022/01/09 17:48:31;;;;;;;13.52;6.93;;;;;;;;;;4985608;28;20117;-79
2022/01/09 17:50:57;;;;;;;9.00;4.47;;;;;;;;;;4995134;28;20484;-79
2022/01/09 17:53:26;;;;;;;3.97;3.13;;;;;;;;;;4996953;28;20034;-79
2022/01/09 17:55:52;;;;;;;9.27;3.47;;;;;;;;;;4996054;28;20045;-77
2022/01/09 17:58:18;;;;;;;9.43;3.58;;;;;;;;;;4994658;28;20038;-77
2022/01/09 18:00:44;;;;;;;7.55;3.60;;;;;;;;;;4995810;28;20041;-79
2022/01/09 18:03:10;;;;;;;6.57;3.20;;;;;;;;;;4996021;28;20038;-80
2022/01/09 18:05:37;;;;;;;9.35;3.33;;;;;;;;;;4997177;28;20027;-78
2022/01/09 18:08:03;;;;;;;11.02;4.35;;;;;;;;;;4995656;28;20062;-79
2022/01/09 18:10:29;;;;;;;8.13;3.33;;;;;;;;;;5017703;28;20015;-77
2022/01/09 18:12:55;;;;;;;7.85;3.38;;;;;;;;;;5017544;28;20034;-78
2022/01/09 18:15:21;;;;;;;6.00;3.65;;;;;;;;;;5014598;28;20397;-74
2022/01/09 18:17:47;;;;;;;6.25;3.30;;;;;;;;;;5013366;28;20026;-73
2022/01/09 18:20:13;;;;;;;8.60;4.18;;;;;;;;;;5012051;28;20401;-78
2022/01/09 18:22:39;;;;;;;10.45;4.95;;;;;;;;;;5013334;28;20378;-75
2022/01/09 18:25:05;;;;;;;12.38;6.32;;;;;;;;;;5028477;28;20022;-78
2022/01/09 18:27:32;;;;;;;13.30;7.60;;;;;;;;;;5016233;28;20053;-78
2022/01/09 18:29:58;;;;;;;7.97;4.28;;;;;;;;;;5032267;28;20014;-77
2022/01/09 18:32:24;;;;;;;6.88;4.13;;;;;;;;;;5015386;28;20030;-77
2022/01/09 18:34:50;;;;;;;8.80;4.68;;;;;;;;;;5028125;28;20026;-77
2022/01/09 18:37:17;;;;;;;9.18;4.70;;;;;;;;;;5025799;28;20098;-73
2022/01/09 18:39:43;;;;;;;11.93;5.50;;;;;;;;;;5020341;28;20046;-76
2022/01/09 18:42:09;;;;;;;10.75;5.70;;;;;;;;;;5017844;28;20026;-78
2022/01/09 18:44:38;;;;;;;10.10;6.03;;;;;;;;;;5001776;28;20041;-77
2022/01/09 18:47:05;;;;;;;11.82;6.25;;;;;;;;;;5004401;28;20033;-77
2022/01/09 18:49:31;;;;;;;13.65;6.85;;;;;;;;;;5008299;28;20034;-77
2022/01/09 18:51:57;;;;;;;16.52;6.97;;;;;;;;;;5014796;28;20082;-77
2022/01/09 18:54:23;;;;;;;16.05;6.15;;;;;;;;;;5030020;28;20057;-78
2022/01/09 18:56:50;;;;;;;12.20;6.22;;;;;;;;;;5030158;28;20026;-78
2022/01/09 18:59:16;;;;;;;18.08;9.30;;;;;;;;;;5015294;28;20037;-79
2022/01/09 19:01:42;;;;;;;12.35;7.30;;;;;;;;;;5014743;28;20041;-80
2022/01/09 19:04:12;;;;;;;13.48;6.88;;;;;;;;;;5013439;28;20023;-76
2022/01/09 19:06:38;;;;;;;17.38;7.30;;;;;;;;;;5012154;28;20503;-77
2022/01/09 19:09:04;;;;;;;13.27;7.80;;;;;;;;;;5009934;28;20026;-76
2022/01/09 19:11:30;;;;;;;15.40;7.68;;;;;;;;;;5012746;28;20041;-77
2022/01/09 19:13:58;;;;;;;25.88;11.77;;;;;;;;;;5014197;28;20020;-78